Flight Track Log - Related Links

Times and Time Zones

All times are in EDT time to prevent confusion due to time zone crossing. See the JBU56 flight status page for this flight to view local times or setup timezone preferences in your user account.

Time Position Orientation Groundspeed Altitude Reporting Facility
EDT Latitude Longitude Course Direction KTS MPH feet Rate Location/Type
Sat 09:01:09 AM 38.9667 -77.5167 74° East 174 200 2,100  Level Potomac TRACON
Sat 09:02:03 AM 39.0000 -77.5667 311° West 235 270 4,200 2,579 Climbing Potomac TRACON
Sat 09:03:00 AM 39.0306 -76.9485 77° East  Level FlightAware
Sat 09:03:03 AM 39.0833 -77.5667 360° North 290 334 7,000  Level Potomac TRACON
Sat 09:03:57 AM 39.1167 -77.4833 63° Northeast 307 353 9,800 1,579 Climbing Potomac TRACON
Sat 09:04:00 AM 39.0527 -76.8174 78° East  Level FlightAware
Sat 09:04:57 AM 39.1500 -77.3833 67° East 322 371 10,000  Level Potomac TRACON
Sat 09:05:00 AM 39.0667 -76.6849 90° East  Level FlightAware
Sat 09:05:57 AM 39.1333 -77.2500 99° East 360 414 10,500  Level Potomac TRACON
Sat 09:06:00 AM 39.0854 -76.5573 74° East  Level FlightAware
Sat 09:07:37 AM 39.0919 -77.0731 107° East 366 421 14,700  Level Washington Center
Sat 09:08:35 AM 39.0642 -76.9389 105° East 382 440 17,000 2,186 Climbing Washington Center
Sat 09:09:35 AM 39.0700 -76.8000 87° East 382 440 19,000 2,000 Climbing Washington Center
Sat 09:10:35 AM 39.0922 -76.6506 79° East 389 448 21,000 1,785 Climbing Washington Center
Sat 09:11:36 AM 39.1122 -76.5011 80° East 409 471 22,600 984 Climbing Washington Center
Sat 09:12:37 AM 39.1342 -76.3408 80° East 430 495 23,000 202 Climbing Washington Center
Sat 09:13:35 AM 39.1558 -76.1883 80° East 437 503 23,000  Level Washington Center
Sat 09:14:35 AM 39.1753 -76.0281 81° East 442 509 23,000 843 Level Washington Center
Sat 09:15:36 AM 39.2069 -75.8728 75° East 448 516 24,700 1,537 Climbing Washington Center
Sat 09:16:36 AM 39.2947 -75.7497 47° Northeast 438 504 26,100 1,488 Climbing Washington Center
Sat 09:17:37 AM 39.3886 -75.6292 45° Northeast 451 519 27,700 1,412 Climbing Washington Center
Sat 09:18:35 AM 39.4822 -75.5056 46° Northeast 461 531 28,900 1,424 Climbing Washington Center
Sat 09:19:35 AM 39.5758 -75.3842 45° Northeast 472 543 30,500 630 Climbing Washington Center
Sat 09:21:55 AM 39.7997 -75.0644 48° Northeast 495 570 31,000 149 Climbing New Center
Sat 09:22:56 AM 39.8900 -74.9319 48° Northeast 495 570 31,000  Level New Center
Sat 09:23:55 AM 39.9692 -74.8119 49° Northeast 489 563 31,000  Level New Center
Sat 09:24:54 AM 40.0681 -74.6631 49° Northeast 489 563 31,000  Level New Center
Sat 09:25:56 AM 40.1492 -74.5428 49° Northeast 494 568 31,000  Level New Center
Sat 09:26:56 AM 40.2411 -74.4008 50° Northeast 501 577 31,000  Level New Center
Sat 09:27:59 AM 40.3286 -74.2667 49° Northeast 496 571 31,000  Level New Center
Sat 09:28:56 AM 40.4181 -74.1267 50° Northeast 496 571 31,000 -178 Level New Center
Sat 09:30:48 AM 40.5844 -73.8775 49° Northeast 481 554 30,500 -942 Descending Boston Center
Sat 09:31:48 AM 40.6694 -73.7397 51° Northeast 481 554 28,300 -2,288 Descending Boston Center
Sat 09:32:46 AM 40.7628 -73.5881 51° Northeast 486 559 26,000 -2,118 Descending Boston Center
Sat 09:33:47 AM 40.8453 -73.4553 51° Northeast 476 548 24,100 -1,033 Descending Boston Center
Sat 09:34:48 AM 40.9128 -73.3519 49° Northeast 471 542 23,900 -545 Descending Boston Center
Sat 09:35:48 AM 40.9994 -73.1936 54° Northeast 457 526 23,000 -446 Descending Boston Center
Sat 09:36:49 AM 41.0711 -73.0542 56° Northeast 452 520 23,000  Level Boston Center
Sat 09:37:46 AM 41.1386 -72.9086 58° Northeast 457 526 23,000  Level Boston Center
Sat 09:38:47 AM 41.2078 -72.7683 57° Northeast 457 526 23,000  Level Boston Center
Sat 09:39:47 AM 41.2811 -72.6225 56° Northeast 457 526 23,000  Level Boston Center
Sat 09:40:47 AM 41.3500 -72.4789 57° Northeast 462 532 23,000  Level Boston Center
Sat 09:41:48 AM 41.4167 -72.3378 58° Northeast 462 532 23,000  Level Boston Center
Sat 09:43:00 AM 41.4789 -72.2100 57° Northeast 457 526 23,000 -138 Level Boston Center
Sat 09:43:58 AM 41.5453 -72.0297 64° Northeast 451 519 22,700 -1,160 Descending Boston Center
Sat 09:44:59 AM 41.5925 -71.8739 68° East 446 513 20,700 -2,115 Descending Boston Center
Sat 09:46:00 AM 41.6497 -71.7094 65° Northeast 441 507 18,400 -1,664 Descending Boston Center
Sat 09:46:58 AM 41.6928 -71.5811 66° East 433 498 17,400 -2,168 Descending Boston Center
Sat 09:47:59 AM 41.7436 -71.4467 63° Northeast 408 470 14,100 -2,526 Descending Boston Center
Sat 09:49:11 AM 41.7925 -71.3042 65° Northeast 387 445 11,800 -1,398 Descending Boston Center
Sat 09:50:12 AM 41.8331 -71.1947 64° Northeast 370 426 11,000 -397 Descending Boston Center
Sat 09:51:12 AM 41.8853 -71.0403 66° East 349 402 11,000  Level Boston Center
Sat 09:52:10 AM 41.9108 -70.9253 73° East 329 379 11,000 -101 Level Boston Center
Sat 09:53:11 AM 41.9450 -70.8211 66° East 318 366 10,800 -885 Descending Boston Center
Sat 09:54:12 AM 41.9956 -70.7222 55° Northeast 311 358 9,200 -1,328 Descending Boston Center
Sat 09:55:22 AM 42.0461 -70.6286 54° Northeast 311 358 7,900 -1,292 Descending Boston Center
Sat 09:56:22 AM 42.1328 -70.5617 30° Northeast 299 344 6,400 -1,488 Descending Boston Center
Sat 09:57:23 AM 42.2028 -70.5147 26° Northeast 288 331 4,900 -744 Descending Boston Center
Sat 09:58:23 AM 42.2733 -70.4956 11° North 266 306 4,900  Level Boston Center
Sat 09:59:24 AM 42.3361 -70.5133 348° North 239 275 4,900 -50 Level Boston Center
Sat 10:00:24 AM 42.3889 -70.5456 336° Northwest 209 241 4,800 -454 Descending Boston Center
Sat 10:01:23 AM 42.4067 -70.6181 288° West 187 215 4,000 -756 Descending Boston Center
Sat 10:02:23 AM 42.4158 -70.6797 281° West 176 203 3,300 -447 Descending Boston Center
Sat 10:04:31 AM 42.4000 -70.8000 260° West 165 190 2,600 -511 Descending KA90
Sat 10:05:31 AM 42.3833 -70.8667 251° West 167 192 1,700 -800 Descending KA90
Sat 10:06:31 AM 42.3667 -70.9167 246° West 133 153 1,000 -700 Descending KA90
Sat 10:07:31 AM 42.3667 -70.9667 270° West 129 148 300 -700 Descending KA90

Login

Don't have an account? Register now (free) for customized features, flight alerts, and more!